Terminal Aerodrome Forecast
Issued by NWS Binghamton, NY

Home | Current Version | Previous Version | Text Only | Print | Product List | Glossary On
Versions: 1 2 3 4 5 6 7 8 9 10 11 12 13 14
000
FTUS41 KBGM 281742
TAFSYR
TAF
KSYR 281742Z 2818/2918 29005KT P6SM SCT050 BKN250
     FM290000 00000KT P6SM SCT200
     FM291500 25005KT P6SM BKN050
      TEMPO 2915/2918 TSRA BKN050CB=

USA.gov is the U.S. government's official web portal to all federal, state and local government web resources and services.